Time;durP1;ratioP1;P1;durP2;ratioP2;P2;SDS_P1;SDS_P2;PMS_P1;PMS_P2;Temp;Humidity;BMP_temperature;BMP_pressure;BME280_temperature;BME280_humidity;BME280_pressure;Samples;Min_cycle;Max_cycle;Signal;HPM_P1;HPM_P2
2022/02/15 00:00:12;;;;;;;53.52;25.25;;;;;;;0.80;68.49;99552.18;2144068;83;21569;-86
2022/02/15 00:03:14;;;;;;;51.60;24.23;;;;;;;0.76;68.58;99554.69;2141117;82;21049;-87
2022/02/15 00:06:15;;;;;;;42.48;23.90;;;;;;;0.78;68.64;99554.07;2148282;82;21027;-86
2022/02/15 00:09:16;;;;;;;44.58;21.65;;;;;;;0.81;68.72;99552.53;2147118;82;21073;-85
2022/02/15 00:12:18;;;;;;;40.03;22.42;;;;;;;0.85;68.86;99551.36;2144929;83;20998;-86
2022/02/15 00:15:19;;;;;;;42.25;22.48;;;;;;;0.87;68.84;99544.69;2143287;83;21090;-85
2022/02/15 00:18:20;;;;;;;43.40;22.15;;;;;;;0.88;68.74;99541.97;2140345;82;21019;-85
2022/02/15 00:21:21;;;;;;;48.98;23.10;;;;;;;0.88;68.93;99532.83;2138905;82;21006;-85
2022/02/15 00:24:23;;;;;;;45.88;23.25;;;;;;;0.91;68.96;99539.60;2144288;82;21044;-86
2022/02/15 00:27:24;;;;;;;40.78;22.00;;;;;;;0.94;68.93;99535.92;2142244;82;20990;-86
2022/02/15 00:30:27;;;;;;;43.78;23.90;;;;;;;0.97;68.78;99537.81;2140974;82;20989;-85
2022/02/15 00:33:28;;;;;;;39.58;22.65;;;;;;;0.99;68.76;99539.02;2138946;82;21020;-86
2022/02/15 00:36:30;;;;;;;39.40;22.13;;;;;;;1.01;68.74;99544.45;2116448;83;21026;-85
2022/02/15 00:39:31;;;;;;;42.88;22.27;;;;;;;1.06;68.71;99546.71;2141027;82;21140;-86
2022/02/15 00:42:34;;;;;;;42.85;21.75;;;;;;;1.10;68.64;99549.46;2144179;82;21023;-86
2022/02/15 00:45:36;;;;;;;38.02;21.60;;;;;;;1.11;68.56;99549.32;2142082;82;21140;-86
2022/02/15 00:48:37;;;;;;;39.15;20.17;;;;;;;1.14;68.53;99549.56;2138488;83;20955;-86
2022/02/15 00:51:38;;;;;;;39.48;22.17;;;;;;;1.12;68.48;99541.83;2140820;83;20952;-85
2022/02/15 00:54:40;;;;;;;38.38;22.37;;;;;;;1.11;68.46;99542.79;2142724;82;21085;-87
2022/02/15 00:57:42;;;;;;;39.35;21.30;;;;;;;1.10;68.48;99539.83;2141030;83;20942;-85
2022/02/15 01:00:44;;;;;;;42.88;22.82;;;;;;;1.07;68.45;99530.08;2137520;82;21053;-87
2022/02/15 01:03:46;;;;;;;41.18;21.12;;;;;;;1.02;68.63;99530.45;2136579;83;21090;-84
2022/02/15 01:06:48;;;;;;;39.55;21.57;;;;;;;0.97;68.66;99525.23;2146175;82;21014;-86
2022/02/15 01:09:49;;;;;;;41.80;22.13;;;;;;;0.93;68.74;99526.41;2145857;83;21005;-85
2022/02/15 01:12:50;;;;;;;39.08;21.80;;;;;;;0.87;68.81;99525.95;2142297;82;21059;-85
2022/02/15 01:15:51;;;;;;;39.55;20.30;;;;;;;0.87;68.92;99525.95;2138877;83;21016;-86
2022/02/15 01:18:53;;;;;;;42.50;21.80;;;;;;;0.91;68.96;99530.94;2138275;83;21601;-87
2022/02/15 01:21:55;;;;;;;36.83;21.12;;;;;;;0.92;69.02;99524.75;2143126;82;21059;-86
2022/02/15 01:24:56;;;;;;;39.33;20.75;;;;;;;0.94;69.03;99515.84;2142804;82;21464;-87
2022/02/15 01:27:58;;;;;;;41.58;21.15;;;;;;;0.99;69.00;99518.11;2142560;82;21162;-86
2022/02/15 01:30:59;;;;;;;36.38;20.17;;;;;;;1.03;69.04;99518.22;2139057;82;21610;-86
2022/02/15 01:34:00;;;;;;;52.62;27.67;;;;;;;1.07;69.05;99517.86;2111653;83;20975;-86
2022/02/15 01:37:02;;;;;;;43.92;22.35;;;;;;;1.06;69.10;99516.19;2143676;82;21066;-86
2022/02/15 01:40:05;;;;;;;36.73;21.25;;;;;;;1.03;69.17;99515.13;2142122;82;21122;-86
2022/02/15 01:43:06;;;;;;;34.03;19.35;;;;;;;1.03;69.33;99519.04;2142526;82;21023;-85
2022/02/15 01:46:09;;;;;;;36.63;20.32;;;;;;;1.06;69.34;99516.66;2138089;82;21461;-84
2022/02/15 01:49:10;;;;;;;34.20;19.95;;;;;;;1.06;69.41;99518.80;2144808;83;21036;-86
2022/02/15 01:52:12;;;;;;;37.03;20.35;;;;;;;1.08;69.48;99507.76;2137707;82;21024;-86
2022/02/15 01:55:15;;;;;;;34.83;21.57;;;;;;;1.07;69.65;99509.17;2140129;82;21067;-88
2022/02/15 01:58:17;;;;;;;39.27;21.45;;;;;;;1.06;69.92;99503.60;2142891;82;21062;-87
2022/02/15 02:01:20;;;;;;;42.95;20.20;;;;;;;1.04;69.84;99504.19;2138950;83;21022;-87
2022/02/15 02:07:43;;;;;;;38.92;20.40;;;;;;;1.01;70.10;99509.66;2138658;83;21529;-86
2022/02/15 02:10:47;;;;;;;41.77;21.30;;;;;;;1.04;70.06;99507.66;2143539;83;21034;-87
2022/02/15 02:14:02;;;;;;;36.28;20.70;;;;;;;1.10;70.08;99498.02;2104549;83;21098;-86
2022/02/15 02:17:05;;;;;;;34.05;19.75;;;;;;;1.19;70.02;99496.94;2094042;83;21098;-86
2022/02/15 02:20:08;;;;;;;35.60;20.77;;;;;;;1.24;69.98;99502.61;2099210;84;21021;-86
2022/02/15 02:23:12;;;;;;;35.80;19.73;;;;;;;1.22;69.93;99504.05;2110218;84;21065;-86
2022/02/15 02:26:16;;;;;;;39.85;20.12;;;;;;;1.20;69.97;99498.11;2111368;84;21079;-85
2022/02/15 02:29:17;;;;;;;34.00;19.17;;;;;;;1.22;70.00;99501.44;2108986;84;21069;-87
2022/02/15 02:32:22;;;;;;;34.03;18.17;;;;;;;1.29;69.97;99501.77;2106562;84;21117;-86
2022/02/15 02:35:24;;;;;;;38.80;20.43;;;;;;;1.32;69.88;99498.91;2139524;83;20964;-86
2022/02/15 02:38:26;;;;;;;35.73;20.55;;;;;;;1.33;69.90;99500.11;2103152;84;21588;-87
2022/02/15 02:41:29;;;;;;;42.03;21.50;;;;;;;1.26;69.90;99497.61;2135677;83;21567;-86
2022/02/15 02:44:31;;;;;;;39.05;21.12;;;;;;;1.25;70.02;99501.20;2139182;82;21070;-85
2022/02/15 02:47:32;;;;;;;40.58;21.97;;;;;;;1.27;70.11;99507.14;2134715;82;21094;-85
2022/02/15 02:50:35;;;;;;;35.43;19.85;;;;;;;1.29;70.07;99505.69;2143130;82;21018;-87
2022/02/15 02:53:37;;;;;;;36.45;20.23;;;;;;;1.32;70.06;99506.75;2140567;82;21073;-87
2022/02/15 02:56:39;;;;;;;37.03;19.98;;;;;;;1.37;70.06;99511.63;2140009;83;21059;-85
2022/02/15 02:59:42;;;;;;;38.00;21.65;;;;;;;1.44;70.08;99518.86;2137859;82;21495;-86
2022/02/15 03:02:45;;;;;;;36.40;20.95;;;;;;;1.48;70.07;99520.26;2141474;83;21008;-86
2022/02/15 03:05:46;;;;;;;37.00;20.43;;;;;;;1.46;70.00;99510.39;2143301;82;21045;-85
2022/02/15 03:08:48;;;;;;;36.05;20.48;;;;;;;1.44;70.05;99514.11;2137589;83;20982;-86
2022/02/15 03:11:51;;;;;;;36.13;20.02;;;;;;;1.42;70.00;99516.02;2138319;83;21088;-86
2022/02/15 03:14:52;;;;;;;34.38;19.37;;;;;;;1.30;69.98;99509.98;2138531;83;21007;-85
2022/02/15 03:17:54;;;;;;;38.10;20.68;;;;;;;1.25;70.14;99516.88;2132804;83;21070;-86
2022/02/15 03:20:56;;;;;;;34.45;19.55;;;;;;;1.23;70.29;99514.03;2138239;82;21085;-86
2022/02/15 03:23:57;;;;;;;35.55;20.43;;;;;;;1.24;70.30;99513.92;2140524;83;21006;-85
2022/02/15 03:26:59;;;;;;;36.90;19.82;;;;;;;1.21;70.34;99518.09;2140569;82;21105;-87
2022/02/15 03:30:00;;;;;;;34.92;19.37;;;;;;;1.19;70.39;99515.23;2139166;83;21038;-87
2022/02/15 03:33:03;;;;;;;31.68;17.90;;;;;;;1.15;70.36;99525.08;2143173;83;21094;-86
2022/02/15 03:36:05;;;;;;;34.55;19.00;;;;;;;1.11;70.43;99526.28;2142653;82;20981;-86
2022/02/15 03:39:10;;;;;;;37.30;21.70;;;;;;;1.09;70.53;99524.26;2143309;82;21039;-86
2022/02/15 03:45:32;;;;;;;54.33;30.52;;;;;;;1.09;70.65;99529.00;2142636;82;21057;-86
2022/02/15 03:48:35;;;;;;;53.52;28.17;;;;;;;1.07;70.65;99530.93;2138593;82;21544;-86
2022/02/15 03:51:38;;;;;;;52.80;27.62;;;;;;;1.07;70.70;99530.08;2146622;82;21033;-87
2022/02/15 03:54:39;;;;;;;50.60;28.12;;;;;;;1.12;70.76;99533.98;2144489;83;21061;-86
2022/02/15 03:57:41;;;;;;;55.70;30.72;;;;;;;1.10;70.58;99535.91;2145437;83;20989;-86
2022/02/15 04:00:43;;;;;;;45.50;24.92;;;;;;;1.09;70.73;99536.02;2131720;83;21126;-85
2022/02/15 04:03:46;;;;;;;46.50;22.90;;;;;;;1.08;70.78;99533.89;2137155;83;21500;-84
2022/02/15 04:06:48;;;;;;;40.88;22.93;;;;;;;1.11;70.84;99539.34;2140352;83;21000;-86
2022/02/15 04:09:50;;;;;;;36.13;20.72;;;;;;;1.10;70.81;99535.09;2138944;82;21066;-86
2022/02/15 04:12:52;;;;;;;41.80;20.32;;;;;;;1.04;70.88;99538.16;2141144;83;21039;-86
2022/02/15 04:15:53;;;;;;;38.28;19.75;;;;;;;1.03;70.98;99545.17;2138790;83;21560;-85
2022/02/15 04:18:55;;;;;;;38.60;20.50;;;;;;;1.07;71.02;99543.99;2144532;82;21070;-87
2022/02/15 04:21:56;;;;;;;32.93;20.08;;;;;;;1.10;70.98;99540.31;2143724;82;20987;-86
2022/02/15 04:25:00;;;;;;;36.73;20.23;;;;;;;1.10;71.04;99546.36;2137882;83;21017;-85
2022/02/15 04:28:01;;;;;;;40.00;20.60;;;;;;;1.14;71.19;99552.66;2139708;83;21603;-85
2022/02/15 04:31:03;;;;;;;39.60;20.97;;;;;;;1.20;71.22;99552.16;2140283;83;21055;-84
2022/02/15 04:34:05;;;;;;;35.25;20.02;;;;;;;1.21;71.36;99544.22;2141701;83;21131;-86
2022/02/15 04:37:06;;;;;;;36.23;19.48;;;;;;;1.16;71.29;99548.97;2137361;83;20981;-85
2022/02/15 04:40:11;;;;;;;34.50;19.60;;;;;;;1.14;71.47;99546.13;2135548;82;21026;-85
2022/02/15 04:43:14;;;;;;;33.35;19.40;;;;;;;1.14;71.67;99543.03;2137925;83;21130;-85
2022/02/15 04:46:17;;;;;;;37.63;20.30;;;;;;;1.13;71.75;99534.84;2140429;82;20995;-85
2022/02/15 04:49:19;;;;;;;39.15;19.60;;;;;;;1.15;71.74;99541.23;2127234;82;21069;-86
2022/02/15 04:52:20;;;;;;;34.38;20.05;;;;;;;1.14;71.73;99532.57;2140545;82;21456;-85
2022/02/15 04:55:21;;;;;;;35.10;19.77;;;;;;;1.07;71.94;99543.14;2107751;83;21014;-85
2022/02/15 04:58:28;;;;;;;36.50;20.12;;;;;;;1.05;72.04;99544.58;2107078;84;21074;-86
2022/02/15 05:01:30;;;;;;;36.28;20.97;;;;;;;1.04;72.17;99542.93;2114964;83;21544;-86
2022/02/15 05:04:48;;;;;;;48.33;23.40;;;;;;;1.09;72.24;99549.91;2137497;82;21056;-85
2022/02/15 05:07:49;;;;;;;41.85;20.97;;;;;;;1.13;72.23;99559.67;2113236;84;21029;-85
2022/02/15 05:10:51;;;;;;;40.28;21.42;;;;;;;1.09;72.21;99567.37;2140927;83;21021;-85
2022/02/15 05:13:54;;;;;;;36.60;20.45;;;;;;;1.06;72.34;99566.31;2144037;82;21463;-84
2022/02/15 05:16:57;;;;;;;44.53;22.10;;;;;;;1.05;72.48;99562.88;2140236;83;21031;-87
2022/02/15 05:20:00;;;;;;;39.65;20.88;;;;;;;0.93;72.52;99553.84;2143157;82;21058;-84
2022/02/15 05:23:02;;;;;;;61.00;27.58;;;;;;;0.94;72.74;99564.66;2143027;82;21126;-85
2022/02/15 05:26:05;;;;;;;50.05;21.68;;;;;;;0.89;72.71;99576.76;2142174;83;21107;-86
2022/02/15 05:29:08;;;;;;;41.95;23.62;;;;;;;0.75;72.94;99572.59;2142114;82;21077;-86
2022/02/15 05:32:12;;;;;;;44.18;25.37;;;;;;;0.73;73.27;99577.57;2134931;83;21047;-85
2022/02/15 05:35:15;;;;;;;42.00;23.35;;;;;;;0.75;73.34;99588.73;2139965;82;21569;-90
2022/02/15 05:38:18;;;;;;;35.98;21.52;;;;;;;0.79;73.42;99584.48;2140347;82;21477;-86
2022/02/15 05:41:21;;;;;;;42.25;24.15;;;;;;;0.82;73.33;99585.55;2139778;83;21029;-86
2022/02/15 05:44:22;;;;;;;48.70;26.75;;;;;;;0.80;73.43;99593.97;2135364;83;21042;-86
2022/02/15 05:47:25;;;;;;;46.45;26.42;;;;;;;0.83;73.49;99599.44;2142043;83;21539;-87
2022/02/15 05:53:47;;;;;;;73.15;33.08;;;;;;;0.86;73.58;99603.94;2144052;83;21033;-86
2022/02/15 05:56:50;;;;;;;57.25;26.17;;;;;;;0.89;73.73;99607.63;2138290;83;21046;-86
2022/02/15 06:00:00;;;;;;;33.42;18.77;;;;;;;0.91;73.70;99596.25;2135720;83;21026;-85
2022/02/15 06:04:09;;;;;;;34.08;19.35;;;;;;;0.97;73.77;99608.83;2140820;82;20990;-86
2022/02/15 06:06:11;;;;;;;34.30;20.32;;;;;;;0.99;73.87;99609.08;2136295;83;21038;-88
2022/02/15 06:09:13;;;;;;;33.18;19.87;;;;;;;1.03;74.00;99601.34;2140233;83;21454;-90
2022/02/15 06:12:16;;;;;;;36.33;20.95;;;;;;;1.02;74.03;99606.70;2109549;83;21058;-87
2022/02/15 06:15:19;;;;;;;42.03;27.22;;;;;;;1.04;74.13;99610.01;2137454;82;21576;-86
2022/02/15 06:18:29;;;;;;;41.58;23.42;;;;;;;1.08;74.22;99621.42;2132249;82;21003;-86
2022/02/15 06:21:32;;;;;;;36.08;21.82;;;;;;;1.07;74.28;99622.83;2131357;82;21034;-85
2022/02/15 06:24:33;;;;;;;30.27;20.65;;;;;;;1.07;74.38;99638.51;2136764;82;21003;-86
2022/02/15 06:27:36;;;;;;;34.92;20.50;;;;;;;1.11;74.45;99644.70;2131243;83;21009;-86
2022/02/15 06:30:42;;;;;;;35.52;20.95;;;;;;;1.19;74.53;99643.30;2131642;83;21567;-86
2022/02/15 06:33:46;;;;;;;41.70;24.50;;;;;;;1.28;74.51;99657.78;2128290;83;21348;-85
2022/02/15 06:36:49;;;;;;;43.52;25.27;;;;;;;1.37;74.52;99659.33;2106584;84;21092;-85
2022/02/15 06:39:51;;;;;;;43.35;24.80;;;;;;;1.44;74.53;99656.60;2106316;84;21068;-86
2022/02/15 06:42:54;;;;;;;41.30;24.72;;;;;;;1.47;74.48;99653.27;2138410;83;21021;-86
2022/02/15 06:45:56;;;;;;;36.93;22.50;;;;;;;1.46;74.43;99659.42;2128262;83;21051;-86
2022/02/15 06:48:59;;;;;;;39.85;23.18;;;;;;;1.41;74.39;99661.59;2136715;82;21058;-84
2022/02/15 06:52:01;;;;;;;36.25;21.95;;;;;;;1.39;74.46;99662.66;2133989;82;20976;-87
2022/02/15 06:55:02;;;;;;;40.58;24.05;;;;;;;1.44;74.59;99664.45;2133501;83;21266;-85
2022/02/15 06:58:06;;;;;;;43.83;24.55;;;;;;;1.48;74.63;99669.30;2134948;82;21045;-85
2022/02/15 07:01:08;;;;;;;46.92;26.55;;;;;;;1.58;74.58;99677.27;2136509;83;21114;-86
2022/02/15 07:04:11;;;;;;;44.33;24.87;;;;;;;1.64;74.63;99685.11;2137394;83;21106;-86
2022/02/15 07:07:13;;;;;;;39.05;23.27;;;;;;;1.74;74.58;99696.02;2132381;83;22413;-86
2022/02/15 07:10:16;;;;;;;42.65;24.77;;;;;;;1.82;74.60;99690.67;2135764;82;21615;-86
2022/02/15 07:13:23;;;;;;;41.37;24.10;;;;;;;1.89;74.63;99691.86;2134165;83;21018;-85
2022/02/15 07:16:26;;;;;;;36.48;22.93;;;;;;;1.91;74.46;99692.55;2137681;83;21085;-84
2022/02/15 07:19:32;;;;;;;38.90;21.97;;;;;;;1.95;74.54;99696.13;2138095;82;21030;-85
2022/02/15 07:22:49;;;;;;;38.23;22.87;;;;;;;2.01;74.55;99697.42;2134079;82;21575;-86
2022/02/15 07:25:59;;;;;;;36.30;21.33;;;;;;;2.05;74.54;99702.75;2130205;82;21466;-86
2022/02/15 07:29:05;;;;;;;38.20;20.48;;;;;;;2.09;74.57;99702.88;2099812;84;21580;-86
2022/02/15 07:32:09;;;;;;;33.75;20.37;;;;;;;2.14;74.71;99707.27;2114399;84;21122;-86
2022/02/15 07:35:11;;;;;;;38.50;22.77;;;;;;;2.21;74.66;99714.97;2137029;82;21814;-87
2022/02/15 07:38:13;;;;;;;35.58;21.90;;;;;;;2.26;74.67;99708.55;2130563;83;21097;-84
2022/02/15 07:41:15;;;;;;;40.83;22.67;;;;;;;2.28;74.51;99716.64;2134012;83;21528;-85
2022/02/15 07:44:18;;;;;;;38.10;21.85;;;;;;;2.33;74.40;99718.87;2107167;83;21043;-86
2022/02/15 07:47:19;;;;;;;43.42;24.80;;;;;;;2.32;74.34;99720.66;2114115;84;21014;-87
2022/02/15 07:50:23;;;;;;;32.93;19.73;;;;;;;2.39;74.57;99713.13;2109547;83;21062;-84
2022/02/15 07:53:24;;;;;;;37.48;21.60;;;;;;;2.40;74.51;99722.67;2104002;84;21521;-86
2022/02/15 07:56:26;;;;;;;43.73;21.52;;;;;;;2.46;74.61;99720.38;2132501;83;21073;-86
2022/02/15 07:59:27;;;;;;;34.70;20.88;;;;;;;2.51;74.53;99730.48;2132900;83;21453;-84
2022/02/15 08:02:28;;;;;;;36.48;19.77;;;;;;;2.57;74.35;99731.78;2109094;83;21001;-84
2022/02/15 08:05:30;;;;;;;36.70;20.50;;;;;;;2.62;74.44;99729.62;2110822;84;21002;-83
2022/02/15 08:08:33;;;;;;;39.10;21.12;;;;;;;2.72;74.45;99728.38;2136096;82;21052;-86
2022/02/15 08:11:40;;;;;;;35.48;20.75;;;;;;;2.84;74.52;99730.80;2134703;82;21113;-85
2022/02/15 08:14:38;;;;;;;38.63;23.35;;;;;;;2.99;74.52;99726.09;2138147;83;21023;-85
2022/02/15 08:17:40;;;;;;;41.53;22.73;;;;;;;3.14;74.58;99718.25;2137393;82;21041;-86
2022/02/15 08:20:42;;;;;;;39.65;21.50;;;;;;;3.38;74.32;99721.09;2145447;82;21090;-86
2022/02/15 08:23:43;;;;;;;37.65;22.52;;;;;;;3.62;74.31;99723.39;2141726;83;21458;-85
2022/02/15 08:26:45;;;;;;;41.10;22.35;;;;;;;3.80;74.03;99727.53;2141362;82;21037;-86
2022/02/15 08:29:46;;;;;;;35.38;21.12;;;;;;;3.94;74.01;99724.56;2144653;82;20964;-84
2022/02/15 08:32:49;;;;;;;43.63;22.17;;;;;;;4.04;73.88;99717.52;2142477;82;21591;-86
2022/02/15 08:35:50;;;;;;;39.40;21.20;;;;;;;4.17;73.78;99726.48;2141655;82;21009;-85
2022/02/15 08:38:52;;;;;;;42.55;23.73;;;;;;;4.27;73.45;99745.69;2140072;83;21000;-84
2022/02/15 08:41:53;;;;;;;43.38;23.38;;;;;;;4.42;73.47;99740.05;2140272;82;21529;-84
2022/02/15 08:44:54;;;;;;;40.33;22.62;;;;;;;4.61;73.53;99741.37;2139105;83;21495;-86
2022/02/15 08:47:56;;;;;;;44.65;22.10;;;;;;;4.75;73.24;99747.20;2142505;83;21051;-85
2022/02/15 08:50:57;;;;;;;37.88;22.17;;;;;;;4.92;73.21;99742.55;2137510;82;21497;-85
2022/02/15 08:53:58;;;;;;;40.78;21.40;;;;;;;5.17;73.14;99743.28;2142293;82;20985;-86
2022/02/15 08:57:00;;;;;;;39.42;21.97;;;;;;;5.59;73.21;99752.11;2138499;82;21471;-83
2022/02/15 09:00:08;;;;;;;46.68;27.82;;;;;;;6.06;72.75;99747.32;2138681;83;21078;-85
2022/02/15 09:03:09;;;;;;;42.80;23.42;;;;;;;6.37;72.34;99748.33;2140817;83;21548;-86
2022/02/15 09:06:11;;;;;;;44.40;23.35;;;;;;;6.59;71.55;99754.48;2140151;83;21539;-86
2022/02/15 09:09:13;;;;;;;40.75;22.10;;;;;;;6.64;71.38;99751.38;2138841;83;20975;-84
2022/02/15 09:12:14;;;;;;;38.05;21.25;;;;;;;6.79;71.26;99746.43;2136587;82;21010;-86
2022/02/15 09:15:16;;;;;;;38.78;21.95;;;;;;;6.87;70.86;99756.56;2138555;82;21047;-85
2022/02/15 09:18:17;;;;;;;38.35;20.65;;;;;;;7.06;70.83;99756.03;2142929;83;21058;-86
2022/02/15 09:21:19;;;;;;;40.70;22.35;;;;;;;7.22;70.22;99757.98;2141297;83;21508;-85
2022/02/15 09:24:21;;;;;;;37.33;21.45;;;;;;;7.23;70.17;99762.27;2142725;82;21054;-84
2022/02/15 09:27:26;;;;;;;34.63;20.20;;;;;;;7.30;70.07;99763.32;2143168;82;21102;-86
2022/02/15 09:30:27;;;;;;;39.50;21.48;;;;;;;7.39;69.81;99770.30;2140090;82;21024;-84
2022/02/15 09:33:28;;;;;;;40.63;20.92;;;;;;;7.39;69.56;99766.34;2138567;82;21146;-86
2022/02/15 09:36:30;;;;;;;59.90;29.35;;;;;;;7.38;69.52;99768.66;2142008;82;21297;-86
2022/02/15 09:39:31;;;;;;;28.77;16.75;;;;;;;7.39;69.33;99771.63;2141377;82;21141;-87
2022/02/15 09:42:36;;;;;;;30.17;16.32;;;;;;;7.36;68.71;99781.17;2146697;82;20973;-85
2022/02/15 09:45:38;;;;;;;28.20;17.10;;;;;;;7.26;68.47;99777.79;2142784;83;21153;-86
2022/02/15 09:48:41;;;;;;;29.37;16.65;;;;;;;7.14;68.51;99786.45;2138048;83;20985;-85
2022/02/15 09:51:43;;;;;;;26.52;16.85;;;;;;;7.02;68.36;99787.17;2141383;83;21038;-84
2022/02/15 09:54:50;;;;;;;33.02;17.07;;;;;;;6.91;68.51;99792.68;2135019;83;21614;-86
2022/02/15 09:57:51;;;;;;;28.80;19.05;;;;;;;6.83;68.44;99786.02;2102581;84;20995;-85
2022/02/15 10:00:53;;;;;;;31.73;18.95;;;;;;;6.72;68.48;99777.83;2141465;82;20997;-84
2022/02/15 10:03:59;;;;;;;28.05;17.32;;;;;;;6.68;68.61;99785.71;2139490;82;21031;-86
2022/02/15 10:07:03;;;;;;;27.25;17.48;;;;;;;6.67;68.62;99789.30;2138462;82;21010;-85
2022/02/15 10:10:06;;;;;;;37.42;22.77;;;;;;;6.65;68.83;99792.61;2140143;82;21504;-86
2022/02/15 10:13:13;;;;;;;43.02;24.82;;;;;;;6.66;68.74;99788.98;2137547;82;21004;-86
2022/02/15 10:16:15;;;;;;;32.93;18.60;;;;;;;6.65;68.82;99790.79;2143757;82;21056;-85
2022/02/15 10:19:27;;;;;;;29.37;16.77;;;;;;;6.69;68.86;99796.59;2140758;82;21847;-87
2022/02/15 10:22:28;;;;;;;25.45;17.05;;;;;;;6.78;69.01;99808.04;2139727;82;21017;-86
2022/02/15 10:25:35;;;;;;;29.52;17.20;;;;;;;6.88;68.94;99804.86;2137823;82;21009;-86
2022/02/15 10:28:38;;;;;;;34.43;17.67;;;;;;;6.93;68.82;99803.92;2139829;82;21545;-85
2022/02/15 10:31:41;;;;;;;33.30;18.75;;;;;;;6.98;69.07;99806.91;2139134;82;20999;-86
2022/02/15 10:34:49;;;;;;;31.45;17.95;;;;;;;7.05;69.04;99805.34;2136329;82;21471;-85
2022/02/15 10:37:54;;;;;;;34.45;18.00;;;;;;;7.09;69.06;99800.08;2139478;82;21019;-86
2022/02/15 10:41:06;;;;;;;29.85;15.83;;;;;;;7.16;69.09;99802.47;2138329;82;21025;-86
2022/02/15 10:44:08;;;;;;;27.98;16.00;;;;;;;7.23;69.04;99805.31;2141900;82;21500;-86
2022/02/15 10:47:10;;;;;;;31.00;15.75;;;;;;;7.31;69.04;99808.52;2138364;82;21537;-85
2022/02/15 10:50:15;;;;;;;29.15;16.65;;;;;;;7.37;69.12;99809.22;2135361;82;20956;-87
2022/02/15 10:53:16;;;;;;;25.15;14.73;;;;;;;7.44;68.94;99807.63;2142717;82;21012;-86
2022/02/15 10:56:19;;;;;;;26.25;15.80;;;;;;;7.51;69.02;99809.98;2139202;82;21012;-86
2022/02/15 10:59:23;;;;;;;27.67;15.85;;;;;;;7.57;69.08;99806.74;2111812;82;21021;-86
2022/02/15 11:02:30;;;;;;;31.37;16.52;;;;;;;7.67;69.12;99807.95;2138691;82;21048;-85
2022/02/15 11:05:32;;;;;;;25.02;15.72;;;;;;;7.74;69.12;99812.10;2140259;82;21029;-85
2022/02/15 11:08:37;;;;;;;35.78;18.67;;;;;;;7.74;68.72;99813.42;2135365;82;21503;-86
2022/02/15 11:12:14;;;;;;;26.35;16.00;;;;;;;7.68;68.98;99811.41;2137289;82;21044;-87
2022/02/15 11:15:31;;;;;;;27.32;15.75;;;;;;;7.69;69.18;99807.81;2089114;83;21034;-86
2022/02/15 11:18:34;;;;;;;35.85;17.87;;;;;;;7.61;69.07;99822.59;2109707;84;21080;-86
2022/02/15 11:21:36;;;;;;;22.45;15.00;;;;;;;7.55;69.22;99825.04;2137643;82;21064;-87
2022/02/15 11:24:42;;;;;;;33.28;17.17;;;;;;;7.47;69.09;99828.94;2136326;83;21073;-85
2022/02/15 11:27:54;;;;;;;25.62;15.63;;;;;;;7.39;69.31;99829.20;2136804;83;21124;-85
2022/02/15 11:30:56;;;;;;;25.43;14.95;;;;;;;7.32;69.42;99832.13;2137731;82;20982;-86
2022/02/15 11:34:05;;;;;;;26.75;16.82;;;;;;;7.28;69.40;99828.61;2142879;82;21079;-86
2022/02/15 11:37:12;;;;;;;23.98;15.43;;;;;;;7.27;69.74;99829.11;2103801;84;21065;-86
2022/02/15 11:40:16;;;;;;;31.12;17.70;;;;;;;7.22;69.70;99833.19;2105585;84;21140;-85
2022/02/15 11:43:17;;;;;;;32.13;19.73;;;;;;;7.23;70.08;99829.56;2110392;83;20990;-86
2022/02/15 11:46:35;;;;;;;31.80;19.50;;;;;;;7.25;70.30;99815.23;2144759;82;21468;-85
2022/02/15 11:49:56;;;;;;;29.57;18.95;;;;;;;7.28;70.28;99818.88;2104980;83;21093;-85
2022/02/15 11:52:58;;;;;;;30.20;18.87;;;;;;;7.31;70.44;99815.11;2142613;82;21500;-85
2022/02/15 11:56:00;;;;;;;32.78;19.85;;;;;;;7.33;70.62;99813.98;2102531;84;21505;-86
2022/02/15 11:59:05;;;;;;;33.40;18.98;;;;;;;7.38;70.67;99809.58;2107311;84;21511;-84
2022/02/15 12:02:07;;;;;;;27.40;16.02;;;;;;;7.42;70.64;99804.31;2108690;84;21053;-85
2022/02/15 12:05:08;;;;;;;29.02;15.53;;;;;;;7.49;70.42;99797.44;2141485;82;21612;-86
2022/02/15 12:08:12;;;;;;;25.68;15.40;;;;;;;7.59;70.60;99799.47;2114186;84;21019;-84
2022/02/15 12:11:13;;;;;;;26.40;14.87;;;;;;;7.80;70.76;99803.08;2112151;84;21038;-85
2022/02/15 12:14:17;;;;;;;31.57;15.40;;;;;;;7.98;70.38;99806.14;2135502;82;21021;-86
2022/02/15 12:17:25;;;;;;;23.83;15.75;;;;;;;8.14;70.37;99800.09;2138861;82;21386;-86
2022/02/15 12:20:27;;;;;;;30.12;18.05;;;;;;;8.45;70.59;99807.03;2144456;83;21109;-85
2022/02/15 12:23:28;;;;;;;35.35;21.05;;;;;;;8.59;70.08;99801.59;2144620;82;21041;-86
2022/02/15 12:26:39;;;;;;;32.78;18.92;;;;;;;8.60;69.82;99805.91;2138396;82;20993;-86
2022/02/15 12:29:41;;;;;;;25.60;14.90;;;;;;;8.61;69.62;99800.95;2137900;82;20990;-84
2022/02/15 12:32:48;;;;;;;24.63;14.35;;;;;;;8.55;69.41;99796.31;2144016;83;21100;-85
2022/02/15 12:35:55;;;;;;;26.40;13.78;;;;;;;8.46;69.15;99798.92;2143933;82;21003;-86
2022/02/15 12:38:57;;;;;;;22.60;13.93;;;;;;;8.35;69.14;99797.87;2140610;82;21021;-85
2022/02/15 12:41:58;;;;;;;24.27;13.28;;;;;;;8.30;69.40;99797.52;2142406;82;21034;-86
2022/02/15 12:45:06;;;;;;;25.55;14.40;;;;;;;8.35;69.37;99799.19;2138473;83;21030;-86
2022/02/15 12:48:10;;;;;;;24.72;14.87;;;;;;;8.41;69.46;99794.61;2143512;83;21082;-85
2022/02/15 12:51:11;;;;;;;30.32;15.80;;;;;;;8.53;69.40;99796.45;2139134;83;21065;-84
2022/02/15 12:54:17;;;;;;;27.22;15.08;;;;;;;8.59;69.21;99797.16;2140801;83;21023;-85
2022/02/15 12:57:21;;;;;;;23.73;14.28;;;;;;;8.58;68.89;99792.02;2144675;82;21070;-84
2022/02/15 13:00:27;;;;;;;22.65;15.43;;;;;;;8.49;68.68;99797.28;2133048;82;21042;-85
2022/02/15 13:03:34;;;;;;;27.07;15.93;;;;;;;8.44;68.61;99799.57;2134891;82;21025;-86
2022/02/15 13:06:38;;;;;;;27.73;15.08;;;;;;;8.35;68.61;99804.48;2104856;84;21097;-84
2022/02/15 13:09:40;;;;;;;28.45;15.53;;;;;;;8.28;68.66;99802.16;2106232;84;21097;-86
2022/02/15 13:12:42;;;;;;;25.05;15.20;;;;;;;8.25;68.74;99803.77;2110245;84;20978;-86
2022/02/15 13:15:49;;;;;;;24.60;14.23;;;;;;;8.21;68.55;99811.19;2105834;84;21083;-86
2022/02/15 13:18:58;;;;;;;33.50;15.98;;;;;;;8.17;68.70;99808.55;2136627;83;21486;-85
2022/02/15 13:22:16;;;;;;;26.45;14.83;;;;;;;8.17;68.83;99809.05;2107440;84;21061;-85
2022/02/15 13:25:18;;;;;;;26.52;14.55;;;;;;;8.20;68.88;99802.12;2110226;84;21548;-86
2022/02/15 13:28:21;;;;;;;33.10;17.55;;;;;;;8.26;68.95;99804.94;2128793;83;21097;-85
2022/02/15 13:31:23;;;;;;;34.53;20.17;;;;;;;8.29;68.74;99797.19;2129365;82;21086;-84
2022/02/15 13:34:38;;;;;;;27.48;17.23;;;;;;;8.30;68.90;99803.63;2130731;82;21599;-87
2022/02/15 13:37:39;;;;;;;28.57;17.37;;;;;;;8.33;68.81;99806.94;2110078;84;21045;-85
2022/02/15 13:40:40;;;;;;;29.72;16.90;;;;;;;8.33;68.83;99790.58;2137580;83;21013;-84
2022/02/15 13:43:47;;;;;;;23.07;15.18;;;;;;;8.41;69.07;99797.25;2140774;83;21581;-86
2022/02/15 13:46:49;;;;;;;25.08;14.85;;;;;;;8.53;68.97;99785.41;2136509;83;20991;-86
2022/02/15 13:49:50;;;;;;;20.82;13.78;;;;;;;8.65;68.72;99789.89;2107986;83;21057;-85
2022/02/15 13:52:53;;;;;;;25.32;14.45;;;;;;;8.71;68.63;99793.70;2147233;82;21063;-86
2022/02/15 13:55:56;;;;;;;20.23;12.18;;;;;;;8.70;68.25;99789.39;2141256;82;21093;-86
2022/02/15 13:58:57;;;;;;;22.87;13.28;;;;;;;8.70;68.25;99797.32;2145372;83;20973;-85
2022/02/15 14:01:59;;;;;;;21.80;13.28;;;;;;;8.74;68.30;99810.58;2138279;83;21330;-85
2022/02/15 14:05:02;;;;;;;22.20;12.73;;;;;;;8.81;68.27;99809.41;2133707;82;20970;-86
2022/02/15 14:08:05;;;;;;;22.87;12.80;;;;;;;8.86;68.05;99807.94;2138375;82;21044;-86
2022/02/15 14:11:07;;;;;;;21.37;11.85;;;;;;;8.90;68.12;99806.64;2142266;83;20999;-86
2022/02/15 14:14:08;;;;;;;23.05;12.75;;;;;;;8.95;67.93;99811.42;2142070;82;21498;-85
2022/02/15 14:20:31;;;;;;;19.87;12.57;;;;;;;9.00;67.94;99815.73;2138946;83;21027;-86
2022/02/15 14:23:33;;;;;;;27.32;17.00;;;;;;;8.97;67.70;99811.59;2135871;82;21066;-86